LFBP/PUF METAR and TAF weather

Enter ICAO airport designator
Station Type Date Time Source
LFBP METAR 2022/07/03 15:00 UTC NOAA

LFBP 031500Z AUTO 35004KT 320V050 9999 ///TCU 25/16 Q1019 TEMPO VRB15G25KT 3000 TSRA BKN060CB


Station Type Date Time Source
LFBP Decoded METAR 2022/07/03 15:00 UTC NOAA

Pau, France (LFBP) 43-23N 000-25W 185M
Jul 03, 2022 - 11:00 AM EDT / 2022.07.03 1500 UTC
Wind: from the N (350 degrees) at 5 MPH (4 KT) (direction variable):0
Visibility: greater than 7 mile(s):0
Weather: Cumulonimbus clouds, towering cumulus clouds observed
Temperature: 77 F (25 C)
Dew Point: 60 F (16 C)
Relative Humidity: 57%
Pressure (altimeter): 30.09 in. Hg (1019 hPa)
ob: LFBP 031500Z AUTO 35004KT 320V050 9999 ///TCU 25/16 Q1019 TEMPO VRB15G25KT 3000 TSRA BKN060CB
cycle: 15

Station Type Date Time Source
LFBP TAF 2022/07/03 14:49 UTC NOAA

TAF
AMD LFBP 031442Z 0314/0412 32010KT CAVOK
TEMPO 0315/0320 VRB03KT BKN060CB PROB40
TEMPO 0315/0320 VRB15G25KT 3000 TSRA
FM032000 VRB03KT 9999 BKN025 PROB40
TEMPO 0320/0323 4000 -SHRA BKN011 FEW060CB PROB30
TEMPO 0401/0409 BKN009
FM040900 29006KT 9999 BKN020 BKN050 FEW075CB PROB30
TEMPO 0409/0410 -SHRA

Example: see airport list